This is the latest recevied weather packets stored in our database for station/object KO5MO-11. If no packets are shown the sender has not sent any weather packets the latest 10 day(s).
| Time | Temp. | Humidity | Pressure | Rain* | Wind** | Luminosity | Snow |
|---|---|---|---|---|---|---|---|
| 1777746872 | 23.89° C | 37% | 1011.8 hPa | - | - | 755 W/m² | - |
| 1777746272 | 25° C | 35% | 1012.1 hPa | - | - | 777 W/m² | - |
| 1777745672 | 25.56° C | 37% | 1012.3 hPa | - | - | 788 W/m² | - |
| 1777745072 | 23.33° C | 37% | 1012.2 hPa | - | - | 746 W/m² | - |
| 1777744472 | 23.89° C | 37% | 1012.3 hPa | - | - | 753 W/m² | - |
| 1777743872 | 24.44° C | 36% | 1012.6 hPa | - | - | 767 W/m² | - |
| 1777743272 | 26.67° C | 35% | 1012.6 hPa | - | - | 802 W/m² | - |
| 1777742672 | 24.44° C | 41% | 1012.6 hPa | - | - | 769 W/m² | - |
| 1777742072 | 23.89° C | 36% | 1012.6 hPa | - | - | 750 W/m² | - |
| 1777741472 | 24.44° C | 36% | 1012.6 hPa | - | - | 760 W/m² | - |
| 1777740872 | 26.11° C | 34% | 1012.8 hPa | - | - | 796 W/m² | - |
| 1777740272 | 25.56° C | 37% | 1012.7 hPa | - | - | 780 W/m² | - |
| 1777739672 | 23.33° C | 36% | 1012.7 hPa | - | - | 749 W/m² | - |
| 1777739072 | 23.89° C | 36% | 1012.6 hPa | - | - | 757 W/m² | - |
| 1777738472 | 26.11° C | 34% | 1012.7 hPa | - | - | 798 W/m² | - |
| 1777737872 | 25° C | 38% | 1012.6 hPa | - | - | 773 W/m² | - |
| 1777737272 | 23.33° C | 36% | 1012.6 hPa | - | - | 749 W/m² | - |
| 1777736672 | 24.44° C | 35% | 1012.6 hPa | - | - | 760 W/m² | - |
| 1777736072 | 26.67° C | 33% | 1012.6 hPa | - | - | 800 W/m² | - |
| 1777735472 | 24.44° C | 39% | 1012.4 hPa | - | - | 766 W/m² | - |
| 1777734872 | 23.89° C | 35% | 1012.3 hPa | - | - | 752 W/m² | - |
| 1777734272 | 25° C | 34% | 1012.3 hPa | - | - | 776 W/m² | - |
| 1777733672 | 25.56° C | 35% | 1012.2 hPa | - | - | 782 W/m² | - |
| 1777733072 | 23.89° C | 35% | 1012 hPa | - | - | 757 W/m² | - |
| 1777732472 | 24.44° C | 35% | 1012.1 hPa | - | - | 764 W/m² | - |
* Rain since midnight (hover to see other rain measurements)
** Current wind speed in m/s (hover to see current wind gust speed)